createdAt,value
2022-10-05T00:00:48.050Z,100287.25
2022-10-05T00:01:50.510Z,100296.30
2022-10-05T00:02:55.160Z,100288.52
2022-10-05T00:04:16.265Z,100290.24
2022-10-05T00:05:25.202Z,100274.95
2022-10-05T00:06:29.105Z,100296.52
2022-10-05T00:07:31.211Z,100294.02
2022-10-05T00:08:34.588Z,100293.02
2022-10-05T00:09:36.520Z,100293.09
2022-10-05T00:10:39.805Z,100297.67
2022-10-05T00:11:43.510Z,100296.79
2022-10-05T00:12:47.373Z,100299.57
2022-10-05T00:13:49.607Z,100298.73
2022-10-05T00:14:54.921Z,100298.66
2022-10-05T00:16:18.767Z,100299.50
2022-10-05T00:17:23.756Z,100297.81
2022-10-05T00:18:26.438Z,100297.87
2022-10-05T00:19:37.506Z,100305.80
2022-10-05T00:20:40.979Z,100301.30
2022-10-05T00:21:43.003Z,100300.24
2022-10-05T00:22:45.563Z,100301.80
2022-10-05T00:23:48.259Z,100304.85
2022-10-05T00:24:53.890Z,100308.37
2022-10-05T00:25:59.618Z,100303.09
2022-10-05T00:27:14.664Z,100308.23
2022-10-05T00:28:22.977Z,100303.61
2022-10-05T00:29:24.996Z,100313.53
2022-10-05T00:30:32.256Z,100307.16
2022-10-05T00:31:35.307Z,100309.02
2022-10-05T00:32:37.286Z,100308.89
2022-10-05T00:33:39.199Z,100311.59
2022-10-05T00:34:42.417Z,100308.89
2022-10-05T00:35:44.363Z,100319.58
2022-10-05T00:36:47.261Z,100311.16
2022-10-05T00:37:54.683Z,100308.52
2022-10-05T00:38:58.610Z,100315.52
2022-10-05T00:40:01.282Z,100315.52
2022-10-05T00:41:16.101Z,100314.71
2022-10-05T00:42:40.077Z,100309.36
2022-10-05T00:43:48.565Z,100309.36
2022-10-05T00:45:00.698Z,100318.80
2022-10-05T00:46:09.559Z,100324.94
2022-10-05T00:47:38.570Z,100319.45
2022-10-05T00:48:56.675Z,100319.45
2022-10-05T00:50:34.860Z,100328.02
2022-10-05T00:51:38.374Z,100326.31
2022-10-05T00:52:56.037Z,100326.11
2022-10-05T00:54:18.180Z,100327.94
2022-10-05T00:55:47.378Z,100331.30
2022-10-05T00:56:51.192Z,100331.30
2022-10-05T00:58:05.455Z,100342.94
2022-10-05T00:59:20.483Z,100346.97
2022-10-05T01:00:25.797Z,100346.97
2022-10-05T01:01:49.684Z,100345.91
2022-10-05T01:03:01.329Z,100343.34
2022-10-05T01:04:28.653Z,100337.14
2022-10-05T01:07:30.932Z,100351.34
2022-10-05T01:08:39.661Z,100357.19
2022-10-05T01:09:51.457Z,100358.64
2022-10-05T01:11:15.483Z,100354.20
2022-10-05T01:12:39.051Z,100355.86
2022-10-05T01:14:04.950Z,100353.99
2022-10-05T01:15:22.942Z,100355.41
2022-10-05T01:16:34.204Z,100363.19
2022-10-05T01:17:54.981Z,100365.05
2022-10-05T01:19:17.655Z,100371.05
2022-10-05T01:20:41.116Z,100372.77
2022-10-05T01:21:46.900Z,100372.84
2022-10-05T01:23:12.681Z,100374.57
2022-10-05T01:24:18.384Z,100371.92
2022-10-05T01:25:35.918Z,100375.34
2022-10-05T01:26:45.135Z,100379.11
2022-10-05T01:28:03.374Z,100388.70
2022-10-05T01:29:12.314Z,100377.14
2022-10-05T01:30:17.956Z,100372.70
2022-10-05T01:31:29.433Z,100382.50
2022-10-05T01:32:33.127Z,100375.70
2022-10-05T01:33:38.952Z,100386.83
2022-10-05T01:34:44.669Z,100390.18
2022-10-05T01:36:05.477Z,100385.14
2022-10-05T01:37:37.268Z,100392.75
2022-10-05T01:38:55.041Z,100391.12
2022-10-05T01:40:09.699Z,100391.84
2022-10-05T01:41:27.285Z,100392.61
2022-10-05T01:42:35.737Z,100395.05
2022-10-05T01:43:47.693Z,100396.14
2022-10-05T01:45:10.363Z,100396.98
2022-10-05T01:46:22.243Z,100405.19
2022-10-05T01:47:43.511Z,100402.48
2022-10-05T01:48:55.204Z,100401.48
2022-10-05T01:50:00.833Z,100401.35
2022-10-05T01:51:15.757Z,100413.55
2022-10-05T01:52:21.523Z,100413.55
2022-10-05T01:53:48.609Z,100413.47
2022-10-05T01:55:02.966Z,100416.76
2022-10-05T01:57:55.599Z,100420.98
2022-10-05T01:59:16.701Z,100424.05
2022-10-05T02:00:19.707Z,100435.56
2022-10-05T02:01:32.059Z,100423.13
2022-10-05T02:02:37.690Z,100429.33
2022-10-05T02:03:43.567Z,100420.77
2022-10-05T02:05:07.730Z,100420.77
2022-10-05T02:06:00.110Z,100439.91
2022-10-05T02:07:05.929Z,100426.76
2022-10-05T02:08:20.655Z,100430.42
2022-10-05T02:10:51.413Z,100435.75
2022-10-05T02:12:00.118Z,100431.91
2022-10-05T02:13:18.227Z,100429.33
2022-10-05T02:14:30.094Z,100445.05
2022-10-05T02:15:35.827Z,100445.05
2022-10-05T02:16:43.700Z,100454.70
2022-10-05T02:17:52.448Z,100444.00
2022-10-05T02:19:01.105Z,100447.42
2022-10-05T02:20:07.155Z,100450.91
2022-10-05T02:21:10.143Z,100458.63
2022-10-05T02:22:18.614Z,100450.48
2022-10-05T02:23:24.492Z,100451.78
2022-10-05T02:24:30.235Z,100458.63
2022-10-05T02:25:39.278Z,100456.05
2022-10-05T02:26:42.005Z,100462.19
2022-10-05T02:27:53.744Z,100463.28
2022-10-05T02:28:59.157Z,100466.63
2022-10-05T02:30:04.829Z,100464.94
2022-10-05T02:31:16.595Z,100458.77
2022-10-05T02:32:22.616Z,100458.13
2022-10-05T02:33:27.909Z,100470.22
2022-10-05T02:34:38.722Z,100481.57
2022-10-05T02:35:40.847Z,100472.77
2022-10-05T02:36:44.545Z,100474.48
2022-10-05T02:38:06.101Z,100477.34
2022-10-05T02:39:11.794Z,100464.47
2022-10-05T02:40:36.789Z,100481.91
2022-10-05T02:41:54.851Z,100480.05
2022-10-05T02:43:00.532Z,100474.05
2022-10-05T02:44:23.283Z,100474.05
2022-10-05T02:47:08.954Z,100484.77
2022-10-05T02:48:26.620Z,100485.30
2022-10-05T02:49:41.355Z,100482.83
2022-10-05T02:51:02.030Z,100486.19
2022-10-05T02:52:07.766Z,100485.10
2022-10-05T02:53:22.513Z,100490.32
2022-10-05T02:54:45.057Z,100490.32
2022-10-05T02:55:53.798Z,100491.34
2022-10-05T02:57:02.720Z,100485.23
2022-10-05T02:58:17.595Z,100484.19
2022-10-05T03:00:49.235Z,100474.97
2022-10-05T03:01:55.218Z,100451.46
2022-10-05T03:03:10.229Z,100479.89
2022-10-05T03:04:33.807Z,100489.74
2022-10-05T03:05:48.713Z,100489.74
2022-10-05T03:07:03.949Z,100490.32
2022-10-05T03:08:28.049Z,100488.76
2022-10-05T03:09:33.878Z,100490.66
2022-10-05T03:10:51.790Z,100466.19
2022-10-05T03:12:00.223Z,100491.80
2022-10-05T03:13:18.198Z,100490.34
2022-10-05T03:14:38.728Z,100485.81
2022-10-05T03:15:44.544Z,100495.30
2022-10-05T03:17:16.693Z,100466.12
2022-10-05T03:18:20.395Z,100499.59
2022-10-05T03:19:28.746Z,100502.38
2022-10-05T03:22:02.942Z,100501.91
2022-10-05T03:23:08.709Z,100503.22
2022-10-05T03:24:47.921Z,100505.86
2022-10-05T03:25:59.716Z,100506.52
2022-10-05T03:27:23.689Z,100507.59
2022-10-05T03:28:47.726Z,100480.41
2022-10-05T03:29:56.593Z,100515.65
2022-10-05T03:31:05.468Z,100518.29
2022-10-05T03:32:34.213Z,100517.12
2022-10-05T03:35:24.920Z,100514.73
2022-10-05T03:36:42.941Z,100526.67
2022-10-05T03:37:54.900Z,100517.70
2022-10-05T03:39:03.421Z,100520.55
2022-10-05T03:40:09.309Z,100521.20
2022-10-05T03:41:21.299Z,100514.05
2022-10-05T03:42:30.000Z,100522.14
2022-10-05T03:43:53.936Z,100515.00
2022-10-05T03:45:08.958Z,100518.29
2022-10-05T03:46:24.313Z,100524.78
2022-10-05T03:47:35.816Z,100522.92
2022-10-05T03:48:41.548Z,100522.80
2022-10-05T03:50:02.899Z,100523.84
2022-10-05T03:51:08.585Z,100526.48
2022-10-05T03:52:25.965Z,100531.95
2022-10-05T03:53:31.627Z,100532.55
2022-10-05T03:54:56.084Z,100531.63
2022-10-05T03:56:13.328Z,100537.05
2022-10-05T03:57:18.996Z,100534.28
2022-10-05T03:58:30.638Z,100537.31
2022-10-05T03:59:39.226Z,100541.67
2022-10-05T04:00:45.007Z,100539.82
2022-10-05T04:02:05.930Z,100544.12
2022-10-05T04:03:17.139Z,100536.78
2022-10-05T04:04:25.558Z,100544.97
2022-10-05T04:06:44.843Z,100546.57
2022-10-05T04:08:14.697Z,100540.83
2022-10-05T04:09:26.742Z,100546.17
2022-10-05T04:10:32.784Z,100544.97
2022-10-05T04:11:56.058Z,100545.92
2022-10-05T04:13:01.759Z,100553.84
2022-10-05T04:14:13.508Z,100547.09
2022-10-05T04:15:25.370Z,100540.20
2022-10-05T04:16:31.213Z,100544.77
2022-10-05T04:17:46.108Z,100544.77
2022-10-05T04:18:51.948Z,100544.77
2022-10-05T04:20:09.306Z,100545.09
2022-10-05T04:21:16.482Z,100545.09
2022-10-05T04:22:35.167Z,100540.50
2022-10-05T04:23:58.991Z,100535.34
2022-10-05T04:25:04.912Z,100539.02
2022-10-05T04:26:14.299Z,100541.53
2022-10-05T04:27:20.033Z,100545.18
2022-10-05T04:28:47.090Z,100548.83
2022-10-05T04:30:05.409Z,100551.25
2022-10-05T04:31:14.142Z,100551.97
2022-10-05T04:32:38.285Z,100553.64
2022-10-05T04:33:43.521Z,100552.82
2022-10-05T04:34:52.426Z,100555.40
2022-10-05T04:37:31.465Z,100564.41
2022-10-05T04:38:53.833Z,100564.41
2022-10-05T04:40:02.245Z,100565.58
2022-10-05T04:41:24.660Z,100569.27
2022-10-05T04:42:39.513Z,100568.94
2022-10-05T04:44:10.994Z,100565.58
2022-10-05T04:45:25.973Z,100573.38
2022-10-05T04:46:34.663Z,100538.64
2022-10-05T04:47:43.367Z,100538.64
2022-10-05T04:48:51.805Z,100564.19
2022-10-05T04:49:57.548Z,100578.99
2022-10-05T04:51:18.498Z,100574.43
2022-10-05T04:52:51.301Z,100555.67
2022-10-05T04:54:00.036Z,100571.00
2022-10-05T04:55:34.942Z,100589.30
2022-10-05T04:56:44.144Z,100591.75
2022-10-05T04:59:20.246Z,100598.34
2022-10-05T05:00:25.255Z,100602.58
2022-10-05T05:01:48.143Z,100603.49
2022-10-05T05:03:00.219Z,100603.30
2022-10-05T05:04:18.222Z,100604.97
2022-10-05T05:05:48.420Z,100612.89
2022-10-05T05:07:01.535Z,100583.69
2022-10-05T05:08:28.928Z,100616.19
2022-10-05T05:09:43.486Z,100620.63
2022-10-05T05:10:58.107Z,100617.98
2022-10-05T05:12:25.010Z,100620.69
2022-10-05T05:13:49.046Z,100627.55
2022-10-05T05:15:14.662Z,100627.61
2022-10-05T05:16:23.489Z,100622.20
2022-10-05T05:17:49.281Z,100632.51
2022-10-05T05:19:26.857Z,100632.51
2022-10-05T05:20:47.549Z,100631.66
2022-10-05T05:22:09.951Z,100638.72
2022-10-05T05:23:37.262Z,100621.73
2022-10-05T05:24:58.150Z,100643.47
2022-10-05T05:26:13.113Z,100642.48
2022-10-05T05:27:35.506Z,100639.84
2022-10-05T05:28:56.623Z,100646.58
2022-10-05T05:30:23.780Z,100651.60
2022-10-05T05:31:47.805Z,100646.97
2022-10-05T05:33:11.916Z,100645.27
2022-10-05T05:34:40.408Z,100647.78
2022-10-05T05:36:04.564Z,100659.27
2022-10-05T05:37:37.791Z,100653.01
2022-10-05T05:38:52.381Z,100650.56
2022-10-05T05:39:58.084Z,100664.43
2022-10-05T05:41:16.274Z,100664.43
2022-10-05T05:42:40.457Z,100663.58
2022-10-05T05:43:51.945Z,100665.80
2022-10-05T05:44:55.658Z,100660.70
2022-10-05T05:47:16.297Z,100656.89
2022-10-05T05:48:22.229Z,100663.16
2022-10-05T05:49:43.132Z,100670.24
2022-10-05T05:50:54.692Z,100670.95
2022-10-05T05:52:01.449Z,100663.61
2022-10-05T05:53:13.119Z,100664.76
2022-10-05T05:54:24.943Z,100672.30
2022-10-05T05:55:36.646Z,100669.52
2022-10-05T05:56:42.809Z,100666.37
2022-10-05T05:57:54.430Z,100668.98
2022-10-05T05:59:12.408Z,100668.98
2022-10-05T06:00:28.006Z,100670.13
2022-10-05T06:01:52.318Z,100677.00
2022-10-05T06:02:59.423Z,100676.59
2022-10-05T06:04:11.168Z,100680.86
2022-10-05T06:06:48.947Z,100683.01
2022-10-05T06:07:53.196Z,100682.88
2022-10-05T06:10:20.592Z,100679.66
2022-10-05T06:11:44.505Z,100684.00
2022-10-05T06:12:50.211Z,100679.66
2022-10-05T06:13:53.883Z,100684.91
2022-10-05T06:15:14.666Z,100690.63
2022-10-05T06:16:24.713Z,100686.97
2022-10-05T06:17:33.327Z,100694.59
2022-10-05T06:18:38.912Z,100695.55
2022-10-05T06:19:43.286Z,100690.46
2022-10-05T06:20:52.212Z,100689.83
2022-10-05T06:22:13.318Z,100691.73
2022-10-05T06:23:26.916Z,100700.20
2022-10-05T06:24:53.762Z,100709.48
2022-10-05T06:26:22.371Z,100709.70
2022-10-05T06:27:27.740Z,100700.03
2022-10-05T06:28:30.091Z,100701.56
2022-10-05T06:29:45.113Z,100700.72
2022-10-05T06:30:54.261Z,100693.98
2022-10-05T06:32:11.895Z,100698.40
2022-10-05T06:33:48.165Z,100707.05
2022-10-05T06:36:29.401Z,100704.98
2022-10-05T06:37:44.458Z,100712.20
2022-10-05T06:38:59.388Z,100718.52
2022-10-05T06:40:07.924Z,100717.11
2022-10-05T06:41:40.776Z,100718.23
2022-10-05T06:43:06.545Z,100716.69
2022-10-05T06:44:18.310Z,100721.25
2022-10-05T06:45:36.302Z,100728.45
2022-10-05T06:46:59.508Z,100726.38
2022-10-05T06:48:08.429Z,100731.81
2022-10-05T06:49:17.099Z,100733.12
2022-10-05T06:50:22.978Z,100733.40
2022-10-05T06:52:59.193Z,100737.19
2022-10-05T06:54:04.910Z,100729.97
2022-10-05T06:55:16.372Z,100730.25
2022-10-05T06:56:31.421Z,100727.11
2022-10-05T06:57:54.734Z,100734.04
2022-10-05T06:59:25.001Z,100730.40
2022-10-05T07:00:40.357Z,100729.13
2022-10-05T07:01:49.536Z,100731.70
2022-10-05T07:03:18.545Z,100728.67
2022-10-05T07:04:58.913Z,100726.02
2022-10-05T07:06:10.535Z,100727.05
2022-10-05T07:09:26.359Z,100733.30
2022-10-05T07:10:47.560Z,100734.00
2022-10-05T07:11:58.490Z,100738.22
2022-10-05T07:13:09.658Z,100745.41
2022-10-05T07:14:27.807Z,100750.13
2022-10-05T07:15:42.786Z,100746.19
2022-10-05T07:16:57.478Z,100751.52
2022-10-05T07:18:12.252Z,100703.30
2022-10-05T07:19:35.276Z,100742.88
2022-10-05T07:21:13.225Z,100744.83
2022-10-05T07:22:46.357Z,100745.41
2022-10-05T07:24:19.559Z,100748.30
2022-10-05T07:25:56.613Z,100735.37
2022-10-05T07:27:05.791Z,100753.31
2022-10-05T07:28:20.504Z,100756.71
2022-10-05T07:29:29.229Z,100755.33
2022-10-05T07:30:43.399Z,100754.63
2022-10-05T07:31:49.493Z,100759.64
2022-10-05T07:33:04.848Z,100761.34
2022-10-05T07:34:25.540Z,100768.08
2022-10-05T07:35:57.506Z,100763.67
2022-10-05T07:37:06.361Z,100769.13
2022-10-05T07:38:17.384Z,100760.44
2022-10-05T07:40:00.134Z,100761.76
2022-10-05T07:41:01.739Z,100771.23
2022-10-05T07:42:17.924Z,100773.62
2022-10-05T07:43:40.329Z,100772.14
2022-10-05T07:44:39.754Z,100769.98
2022-10-05T07:45:48.418Z,100716.18
2022-10-05T07:47:03.598Z,100771.99
2022-10-05T07:48:15.472Z,100767.93
2022-10-05T07:49:24.204Z,100778.23
2022-10-05T07:50:55.987Z,100783.24
2022-10-05T07:52:34.505Z,100786.66
2022-10-05T07:53:38.577Z,100779.81
2022-10-05T07:54:48.348Z,100780.97
2022-10-05T07:55:53.880Z,100780.66
2022-10-05T07:57:33.835Z,100786.66
2022-10-05T07:58:39.599Z,100784.09
2022-10-05T07:59:45.771Z,100777.74
2022-10-05T08:01:11.451Z,100778.88
2022-10-05T08:02:39.188Z,100784.00
2022-10-05T08:03:47.886Z,100782.15
2022-10-05T08:05:02.301Z,100779.47
2022-10-05T08:06:10.823Z,100784.00
2022-10-05T08:07:18.412Z,100778.94
2022-10-05T08:08:29.838Z,100776.70
2022-10-05T08:09:50.831Z,100781.60
2022-10-05T08:10:59.351Z,100772.32
2022-10-05T08:12:24.905Z,100769.66
2022-10-05T08:13:52.282Z,100777.70
2022-10-05T08:14:58.084Z,100771.20
2022-10-05T08:16:03.734Z,100772.09
2022-10-05T08:17:09.524Z,100763.32
2022-10-05T08:18:37.999Z,100737.12
2022-10-05T08:19:52.592Z,100756.74
2022-10-05T08:20:57.618Z,100769.20
2022-10-05T08:22:06.333Z,100763.16
2022-10-05T08:23:12.269Z,100773.69
2022-10-05T08:24:20.751Z,100769.66
2022-10-05T08:25:32.155Z,100767.44
2022-10-05T08:26:47.246Z,100770.98
2022-10-05T08:27:55.968Z,100768.98
2022-10-05T08:29:32.323Z,100776.45
2022-10-05T08:30:38.249Z,100774.45
2022-10-05T08:31:44.103Z,100784.06
2022-10-05T08:32:56.083Z,100773.31
2022-10-05T08:34:08.202Z,100776.50
2022-10-05T08:35:22.997Z,100784.95
2022-10-05T08:36:41.014Z,100780.32
2022-10-05T08:37:43.903Z,100780.32
2022-10-05T08:38:47.500Z,100791.47
2022-10-05T08:40:02.452Z,100787.13
2022-10-05T08:41:23.027Z,100788.69
2022-10-05T08:42:53.275Z,100797.20
2022-10-05T08:44:32.879Z,100789.77
2022-10-05T08:45:47.873Z,100787.92
2022-10-05T08:47:11.664Z,100793.68
2022-10-05T08:48:37.362Z,100790.59
2022-10-05T08:50:04.611Z,100786.11
2022-10-05T08:51:42.652Z,100782.42
2022-10-05T08:53:08.505Z,100789.54
2022-10-05T08:54:26.550Z,100799.28
2022-10-05T08:55:35.368Z,100799.55
2022-10-05T08:57:07.434Z,100804.70
2022-10-05T08:58:21.699Z,100794.84
2022-10-05T08:59:36.985Z,100807.36
2022-10-05T09:00:42.793Z,100794.84
2022-10-05T09:02:11.737Z,100806.28
2022-10-05T09:03:34.794Z,100813.25
2022-10-05T09:05:00.379Z,100810.02
2022-10-05T09:06:29.300Z,100815.66
2022-10-05T09:08:07.428Z,100809.86
2022-10-05T09:09:45.567Z,100811.68
2022-10-05T09:11:25.303Z,100814.70
2022-10-05T09:12:47.561Z,100804.42
2022-10-05T09:14:19.140Z,100807.45
2022-10-05T09:15:36.779Z,100816.23
2022-10-05T09:16:45.599Z,100823.03
2022-10-05T09:18:06.985Z,100821.82
2022-10-05T09:19:25.036Z,100820.61
2022-10-05T09:20:30.159Z,100826.45
2022-10-05T09:21:54.072Z,100822.83
2022-10-05T09:23:11.329Z,100821.30
2022-10-05T09:24:29.231Z,100819.41
2022-10-05T09:25:44.011Z,100814.66
2022-10-05T09:27:06.364Z,100814.05
2022-10-05T09:28:38.243Z,100808.69
2022-10-05T09:30:01.982Z,100815.73
2022-10-05T09:31:07.705Z,100817.75
2022-10-05T09:32:47.368Z,100815.09
2022-10-05T09:34:12.657Z,100817.59
2022-10-05T09:35:18.388Z,100822.63
2022-10-05T09:36:36.464Z,100838.09
2022-10-05T09:38:15.955Z,100819.16
2022-10-05T09:39:31.047Z,100816.91
2022-10-05T09:40:42.958Z,100832.97
2022-10-05T09:42:14.944Z,100828.53
2022-10-05T09:43:18.615Z,100839.69
2022-10-05T09:44:41.097Z,100828.14
2022-10-05T09:46:12.547Z,100841.91
2022-10-05T09:47:25.338Z,100827.37
2022-10-05T09:48:47.884Z,100830.80
2022-10-05T09:50:16.771Z,100824.23
2022-10-05T09:51:39.240Z,100825.77
2022-10-05T09:53:05.690Z,100833.81
2022-10-05T09:54:11.457Z,100830.23
2022-10-05T09:55:35.283Z,100836.16
2022-10-05T09:57:00.876Z,100830.07
2022-10-05T09:58:09.555Z,100831.16
2022-10-05T09:59:24.244Z,100828.86
2022-10-05T10:00:33.244Z,100833.92
2022-10-05T10:02:05.073Z,100838.02
2022-10-05T10:03:14.968Z,100838.12
2022-10-05T10:04:40.311Z,100834.13
2022-10-05T10:06:04.501Z,100834.91
2022-10-05T10:07:37.720Z,100829.67
2022-10-05T10:09:18.853Z,100828.02
2022-10-05T10:10:58.413Z,100839.92
2022-10-05T10:12:22.498Z,100840.14
2022-10-05T10:13:45.289Z,100833.98
2022-10-05T10:15:05.919Z,100833.73
2022-10-05T10:16:14.478Z,100843.28
2022-10-05T10:17:42.732Z,100838.45
2022-10-05T10:18:57.557Z,100829.58
2022-10-05T10:20:18.268Z,100830.78
2022-10-05T10:21:58.079Z,100832.94
2022-10-05T10:23:16.591Z,100832.35
2022-10-05T10:24:30.930Z,100835.17
2022-10-05T10:25:51.770Z,100834.74
2022-10-05T10:27:15.555Z,100832.17
2022-10-05T10:28:33.179Z,100841.26
2022-10-05T10:30:03.453Z,100835.42
2022-10-05T10:31:12.263Z,100842.11
2022-10-05T10:32:37.991Z,100847.97
2022-10-05T10:34:03.617Z,100848.31
2022-10-05T10:35:21.558Z,100847.26
2022-10-05T10:36:33.465Z,100845.56
2022-10-05T10:37:56.014Z,100852.75
2022-10-05T10:39:07.627Z,100844.34
2022-10-05T10:40:36.743Z,100843.50
2022-10-05T10:42:07.231Z,100854.14
2022-10-05T10:43:21.646Z,100840.41
2022-10-05T10:44:45.829Z,100850.37
2022-10-05T10:45:54.370Z,100842.66
2022-10-05T10:47:20.434Z,100841.77
2022-10-05T10:48:32.098Z,100843.92
2022-10-05T10:50:10.101Z,100842.27
2022-10-05T10:51:30.600Z,100837.28
2022-10-05T10:52:36.276Z,100844.08
2022-10-05T10:54:04.860Z,100837.66
2022-10-05T10:55:28.704Z,100842.03
2022-10-05T10:56:50.253Z,100838.17
2022-10-05T10:58:16.206Z,100832.34
2022-10-05T10:59:40.555Z,100797.86
2022-10-05T11:00:51.968Z,100831.38
2022-10-05T11:02:12.637Z,100836.11
2022-10-05T11:05:23.453Z,100842.98
2022-10-05T11:06:32.043Z,100836.70
2022-10-05T11:07:47.076Z,100831.39
2022-10-05T11:09:08.021Z,100833.37
2022-10-05T11:10:15.352Z,100828.05
2022-10-05T11:11:36.520Z,100831.30
2022-10-05T11:12:57.101Z,100827.12
2022-10-05T11:14:23.024Z,100830.20
2022-10-05T11:15:58.106Z,100827.70
2022-10-05T11:17:23.707Z,100827.03
2022-10-05T11:18:38.178Z,100827.70
2022-10-05T11:20:02.445Z,100825.97
2022-10-05T11:21:08.644Z,100832.34
2022-10-05T11:22:49.724Z,100837.16
2022-10-05T11:24:13.210Z,100825.81
2022-10-05T11:25:27.935Z,100823.16
2022-10-05T11:26:48.865Z,100836.70
2022-10-05T11:28:20.667Z,100831.97
2022-10-05T11:29:29.350Z,100827.70
2022-10-05T11:32:28.025Z,100837.11
2022-10-05T11:33:50.458Z,100837.49
2022-10-05T11:35:25.537Z,100831.03
2022-10-05T11:36:43.602Z,100835.85
2022-10-05T11:38:15.468Z,100827.02
2022-10-05T11:39:27.444Z,100835.34
2022-10-05T11:40:59.518Z,100835.09
2022-10-05T11:42:18.021Z,100834.41
2022-10-05T11:43:41.735Z,100828.64
2022-10-05T11:44:59.305Z,100828.73
2022-10-05T11:46:26.147Z,100828.39
2022-10-05T11:47:37.685Z,100823.58
2022-10-05T11:48:47.464Z,100833.11
2022-10-05T11:50:04.948Z,100831.13
2022-10-05T11:51:27.834Z,100825.05
2022-10-05T11:52:33.498Z,100825.81
2022-10-05T11:53:47.555Z,100829.61
2022-10-05T11:55:25.356Z,100819.55
2022-10-05T11:56:37.438Z,100831.47
2022-10-05T11:57:55.335Z,100833.87
2022-10-05T11:59:01.081Z,100834.84
2022-10-05T12:00:23.046Z,100835.35
2022-10-05T12:01:56.481Z,100838.69
2022-10-05T12:04:50.525Z,100839.53
2022-10-05T12:06:12.812Z,100850.63
2022-10-05T12:07:30.627Z,100852.24
2022-10-05T12:08:53.299Z,100861.87
2022-10-05T12:10:02.107Z,100848.23
2022-10-05T12:11:24.562Z,100845.56
2022-10-05T12:12:30.451Z,100850.26
2022-10-05T12:13:42.197Z,100854.98
2022-10-05T12:14:51.177Z,100858.43
2022-10-05T12:16:11.992Z,100861.69
2022-10-05T12:17:35.518Z,100858.78
2022-10-05T12:18:50.083Z,100861.09
2022-10-05T12:19:56.038Z,100862.27
2022-10-05T12:21:07.619Z,100866.23
2022-10-05T12:22:11.387Z,100865.95
2022-10-05T12:23:22.981Z,100881.06
2022-10-05T12:24:31.740Z,100866.67
2022-10-05T12:25:40.666Z,100868.11
2022-10-05T12:26:49.645Z,100866.30
2022-10-05T12:27:55.410Z,100876.09
2022-10-05T12:29:17.750Z,100876.27
2022-10-05T12:30:41.275Z,100870.77
2022-10-05T12:33:20.831Z,100879.72
2022-10-05T12:34:42.229Z,100882.55
2022-10-05T12:36:00.021Z,100880.81
2022-10-05T12:37:31.896Z,100883.31
2022-10-05T12:38:41.724Z,100887.23
2022-10-05T12:39:50.462Z,100891.20
2022-10-05T12:40:59.076Z,100890.36
2022-10-05T12:42:21.852Z,100888.55
2022-10-05T12:43:53.607Z,100889.98
2022-10-05T12:44:57.262Z,100897.04
2022-10-05T12:46:19.670Z,100899.10
2022-10-05T12:47:28.313Z,100904.25
2022-10-05T12:48:54.092Z,100895.31
2022-10-05T12:49:59.771Z,100899.78
2022-10-05T12:51:23.793Z,100910.07
2022-10-05T12:52:29.526Z,100908.09
2022-10-05T12:53:55.504Z,100901.82
2022-10-05T12:55:25.894Z,100895.92
2022-10-05T12:56:44.046Z,100885.70
2022-10-05T12:57:52.324Z,100898.40
2022-10-05T12:59:00.992Z,100898.40
2022-10-05T13:00:06.939Z,100907.30
2022-10-05T13:01:15.410Z,100909.20
2022-10-05T13:02:30.234Z,100902.83
2022-10-05T13:03:35.969Z,100901.14
2022-10-05T13:04:44.562Z,100897.00
2022-10-05T13:07:37.144Z,100903.36
2022-10-05T13:09:01.421Z,100913.11
2022-10-05T13:10:10.221Z,100908.48
2022-10-05T13:11:18.935Z,100903.27
2022-10-05T13:12:42.793Z,100906.95
2022-10-05T13:14:03.368Z,100889.06
2022-10-05T13:15:12.024Z,100915.00
2022-10-05T13:16:21.041Z,100907.63
2022-10-05T13:17:39.216Z,100911.77
2022-10-05T13:19:14.989Z,100911.77
2022-10-05T13:20:21.553Z,100908.07
2022-10-05T13:21:33.711Z,100905.94
2022-10-05T13:22:45.523Z,100902.97
2022-10-05T13:24:00.051Z,100905.22
2022-10-05T13:25:17.871Z,100916.38
2022-10-05T13:26:33.071Z,100907.91
2022-10-05T13:27:38.373Z,100910.73
2022-10-05T13:29:01.059Z,100900.81
2022-10-05T13:30:06.885Z,100905.25
2022-10-05T13:31:21.547Z,100904.89
2022-10-05T13:32:27.172Z,100907.47
2022-10-05T13:33:32.908Z,100904.48
2022-10-05T13:34:38.906Z,100903.55
2022-10-05T13:36:08.790Z,100898.56
2022-10-05T13:37:26.510Z,100896.59
2022-10-05T13:38:37.756Z,100895.10
2022-10-05T13:39:41.580Z,100893.98
2022-10-05T13:40:56.726Z,100884.47
2022-10-05T13:42:14.565Z,100891.48
2022-10-05T13:43:26.369Z,100894.74
2022-10-05T13:46:06.544Z,100889.27
2022-10-05T13:47:27.384Z,100896.27
2022-10-05T13:49:07.948Z,100894.02
2022-10-05T13:50:20.321Z,100897.52
2022-10-05T13:51:42.979Z,100905.77
2022-10-05T13:52:51.839Z,100899.17
2022-10-05T13:54:06.762Z,100908.95
2022-10-05T13:55:41.871Z,100912.38
2022-10-05T13:58:03.744Z,100909.41
2022-10-05T13:59:31.034Z,100905.33
2022-10-05T14:00:37.036Z,100914.50
2022-10-05T14:01:45.801Z,100913.38
2022-10-05T14:02:51.003Z,100917.70
2022-10-05T14:04:05.373Z,100913.38
2022-10-05T14:05:16.553Z,100906.45
2022-10-05T14:06:26.085Z,100915.52
2022-10-05T14:07:40.748Z,100912.32
2022-10-05T14:08:49.029Z,100922.72
2022-10-05T14:09:51.771Z,100918.17
2022-10-05T14:10:54.676Z,100915.52
2022-10-05T14:12:06.337Z,100920.75
2022-10-05T14:13:24.474Z,100910.70
2022-10-05T14:14:27.139Z,100916.78
2022-10-05T14:15:32.393Z,100913.02
2022-10-05T14:16:56.483Z,100915.59
2022-10-05T14:17:58.972Z,100914.59
2022-10-05T14:19:07.733Z,100915.83
2022-10-05T14:20:19.633Z,100916.71
2022-10-05T14:21:25.469Z,100923.72
2022-10-05T14:22:28.377Z,100910.78
2022-10-05T14:23:33.645Z,100914.29
2022-10-05T14:24:45.408Z,100910.78
2022-10-05T14:25:50.194Z,100906.63
2022-10-05T14:26:54.590Z,100912.95
2022-10-05T14:28:12.444Z,100915.53
2022-10-05T14:29:18.388Z,100920.15
2022-10-05T14:30:23.866Z,100921.64
2022-10-05T14:31:32.808Z,100915.37
2022-10-05T14:32:59.916Z,100917.88
2022-10-05T14:34:29.478Z,100923.88
2022-10-05T14:35:38.543Z,100919.60
2022-10-05T14:36:42.267Z,100917.88
2022-10-05T14:37:56.489Z,100924.45
2022-10-05T14:38:58.875Z,100924.06
2022-10-05T14:40:04.821Z,100925.61
2022-10-05T14:41:19.503Z,100923.72
2022-10-05T14:42:27.972Z,100916.47
2022-10-05T14:43:30.580Z,100924.52
2022-10-05T14:45:34.633Z,100912.94
2022-10-05T14:46:37.345Z,100915.59
2022-10-05T14:47:55.757Z,100915.06
2022-10-05T14:50:24.878Z,100919.42
2022-10-05T14:51:30.872Z,100925.83
2022-10-05T14:52:33.190Z,100920.38
2022-10-05T14:53:44.798Z,100924.76
2022-10-05T14:54:53.220Z,100927.26
2022-10-05T14:56:04.800Z,100925.69
2022-10-05T14:57:27.235Z,100926.64